Time;durP1;ratioP1;P1;durP2;ratioP2;P2;SDS_P1;SDS_P2;PMS_P1;PMS_P2;Temp;Humidity;BMP_temperature;BMP_pressure;BME280_temperature;BME280_humidity;BME280_pressure;Samples;Min_cycle;Max_cycle;Signal;HPM_P1;HPM_P2
2021/12/22 00:02:09;;;;;;;36.83;17.88;;;;;;;;;;5093342;28;20027;-68
2021/12/22 00:04:43;;;;;;;33.42;17.77;;;;;;;;;;5076247;28;20047;-67
2021/12/22 00:07:08;;;;;;;33.78;17.50;;;;;;;;;;5076013;28;20020;-67
2021/12/22 00:09:35;;;;;;;42.25;18.35;;;;;;;;;;5074680;28;20039;-67
2021/12/22 00:12:01;;;;;;;46.45;17.50;;;;;;;;;;5074826;28;20016;-67
2021/12/22 00:14:27;;;;;;;47.55;17.83;;;;;;;;;;5075781;28;20070;-68
2021/12/22 00:16:53;;;;;;;36.95;15.98;;;;;;;;;;5075551;28;20036;-67
2021/12/22 00:19:19;;;;;;;58.70;18.67;;;;;;;;;;5093695;28;20085;-68
2021/12/22 00:21:45;;;;;;;45.00;17.60;;;;;;;;;;5074902;28;20024;-67
2021/12/22 00:24:11;;;;;;;33.92;16.70;;;;;;;;;;5075550;28;20054;-67
2021/12/22 00:26:37;;;;;;;47.95;19.23;;;;;;;;;;5093398;28;20479;-68
2021/12/22 00:29:03;;;;;;;32.15;17.00;;;;;;;;;;5075562;28;20040;-67
2021/12/22 00:31:30;;;;;;;38.13;16.55;;;;;;;;;;5075248;28;20020;-66
2021/12/22 00:33:58;;;;;;;31.38;16.08;;;;;;;;;;5092743;28;20023;-67
2021/12/22 00:36:24;;;;;;;33.95;16.48;;;;;;;;;;5074472;28;20024;-67
2021/12/22 00:38:51;;;;;;;32.55;15.40;;;;;;;;;;5075232;28;20391;-67
2021/12/22 00:41:18;;;;;;;37.58;17.70;;;;;;;;;;5093365;28;20050;-67
2021/12/22 00:43:44;;;;;;;53.40;16.85;;;;;;;;;;5074460;28;20024;-67
2021/12/22 00:46:12;;;;;;;37.63;18.23;;;;;;;;;;5093294;28;20476;-66
2021/12/22 00:48:38;;;;;;;34.90;15.75;;;;;;;;;;5093225;28;20111;-68
2021/12/22 00:51:04;;;;;;;31.85;15.68;;;;;;;;;;5075254;28;20025;-66
2021/12/22 00:53:30;;;;;;;35.00;15.68;;;;;;;;;;5092409;28;20027;-67
2021/12/22 00:55:57;;;;;;;42.20;16.42;;;;;;;;;;5074966;28;20026;-67
2021/12/22 00:58:23;;;;;;;30.58;15.40;;;;;;;;;;5093564;28;20158;-66
2021/12/22 01:00:49;;;;;;;28.75;15.25;;;;;;;;;;5075043;28;20031;-67
2021/12/22 01:03:16;;;;;;;35.30;15.25;;;;;;;;;;5092261;28;20024;-67
2021/12/22 01:05:42;;;;;;;42.15;18.05;;;;;;;;;;5093103;28;20028;-67
2021/12/22 01:08:08;;;;;;;42.38;15.73;;;;;;;;;;5074706;28;20473;-70
2021/12/22 01:10:34;;;;;;;39.60;15.45;;;;;;;;;;5070354;23;20094;-70
2021/12/22 01:13:01;;;;;;;33.40;14.68;;;;;;;;;;5050295;28;20060;-69
2021/12/22 01:15:28;;;;;;;31.65;15.45;;;;;;;;;;5052423;28;20048;-68
2021/12/22 01:18:05;;;;;;;37.85;15.80;;;;;;;;;;5050922;28;20453;-69
2021/12/22 01:23:24;;;;;;;39.38;17.20;;;;;;;;;;5028121;28;20108;-69
2021/12/22 01:25:50;;;;;;;34.72;16.77;;;;;;;;;;5051174;28;20116;-71
2021/12/22 01:28:17;;;;;;;34.08;16.42;;;;;;;;;;5050900;28;20013;-69
2021/12/22 01:30:45;;;;;;;39.33;16.70;;;;;;;;;;5050745;28;20032;-70
2021/12/22 01:33:11;;;;;;;;;;;;;;;;;;5050286;28;20643;-70
2021/12/22 01:35:37;;;;;;;34.83;17.50;;;;;;;;;;5050674;28;19905;-70
2021/12/22 01:38:04;;;;;;;33.97;16.42;;;;;;;;;;5051903;28;20021;-69
2021/12/22 01:40:30;;;;;;;28.13;15.20;;;;;;;;;;5050800;28;20052;-70
2021/12/22 01:42:57;;;;;;;33.58;17.27;;;;;;;;;;5051303;28;20032;-70
2021/12/22 01:45:54;;;;;;;31.98;16.88;;;;;;;;;;5052475;28;20128;-71
2021/12/22 01:51:26;;;;;;;38.10;17.83;;;;;;;;;;5056163;28;20055;-71
2021/12/22 01:53:57;;;;;;;38.70;17.02;;;;;;;;;;5054451;28;20028;-69
2021/12/22 01:56:26;;;;;;;30.40;15.65;;;;;;;;;;5055000;28;20119;-71
2021/12/22 01:58:57;;;;;;;33.17;14.75;;;;;;;;;;5056038;28;20088;-70
2021/12/22 02:01:24;;;;;;;33.53;15.63;;;;;;;;;;5054727;28;20025;-70
2021/12/22 02:03:51;;;;;;;28.75;15.00;;;;;;;;;;5055372;28;20086;-70
2021/12/22 02:06:17;;;;;;;45.45;17.00;;;;;;;;;;5055798;28;20025;-70
2021/12/22 02:08:44;;;;;;;31.75;15.15;;;;;;;;;;5055774;28;20092;-69
2021/12/22 02:11:11;;;;;;;32.92;14.93;;;;;;;;;;5054763;28;20029;-71
2021/12/22 02:13:41;;;;;;;31.70;14.85;;;;;;;;;;5055576;28;20527;-71
2021/12/22 02:16:11;;;;;;;40.47;17.25;;;;;;;;;;5054874;28;20539;-71
2021/12/22 02:18:39;;;;;;;30.80;14.82;;;;;;;;;;5054414;28;20033;-70
2021/12/22 02:21:05;;;;;;;33.75;14.90;;;;;;;;;;5054289;28;20477;-69
2021/12/22 02:23:32;;;;;;;33.80;15.18;;;;;;;;;;5054913;28;20112;-69
2021/12/22 02:26:06;;;;;;;31.75;15.65;;;;;;;;;;5055426;28;20047;-70
2021/12/22 02:28:35;;;;;;;45.50;15.50;;;;;;;;;;5054307;28;20110;-69
2021/12/22 02:31:01;;;;;;;67.32;16.80;;;;;;;;;;5055286;28;20017;-71
2021/12/22 02:33:38;;;;;;;33.13;16.02;;;;;;;;;;5054673;28;20025;-71
2021/12/22 02:38:32;;;;;;;36.90;14.70;;;;;;;;;;5055479;28;20279;-70
2021/12/22 02:40:58;;;;;;;39.92;14.20;;;;;;;;;;5054140;28;20021;-69
2021/12/22 02:43:30;;;;;;;30.23;14.13;;;;;;;;;;5053781;28;20119;-70
2021/12/22 02:45:56;;;;;;;32.53;14.15;;;;;;;;;;5053950;28;20362;-70
2021/12/22 02:48:23;;;;;;;26.55;12.35;;;;;;;;;;5054024;28;20024;-69
2021/12/22 02:50:49;;;;;;;32.67;14.50;;;;;;;;;;5053707;28;20397;-70
2021/12/22 02:53:16;;;;;;;53.58;14.68;;;;;;;;;;5053212;28;20500;-69
2021/12/22 02:56:01;;;;;;;45.60;15.00;;;;;;;;;;5053849;28;20055;-70
2021/12/22 03:01:26;;;;;;;29.40;14.07;;;;;;;;;;5054977;28;20025;-69
2021/12/22 03:03:58;;;;;;;38.78;14.00;;;;;;;;;;5054406;28;20024;-70
2021/12/22 03:06:53;;;;;;;40.92;14.13;;;;;;;;;;5053468;28;20025;-70
2021/12/22 03:09:16;;;;;;;33.30;13.80;;;;;;;;;;5054255;28;20469;-70
2021/12/22 03:11:43;;;;;;;43.53;16.08;;;;;;;;;;5052953;28;20396;-69
2021/12/22 03:14:09;;;;;;;36.17;13.25;;;;;;;;;;5053523;28;20056;-70
2021/12/22 03:16:35;;;;;;;33.45;14.45;;;;;;;;;;5053661;28;20071;-70
2021/12/22 03:19:01;;;;;;;27.88;12.60;;;;;;;;;;5054490;28;20056;-70
2021/12/22 03:21:27;;;;;;;27.70;12.90;;;;;;;;;;5054537;28;20052;-67
2021/12/22 03:23:54;;;;;;;23.65;13.63;;;;;;;;;;5054017;28;20469;-70
2021/12/22 03:26:22;;;;;;;39.67;14.23;;;;;;;;;;5053110;28;20029;-71
2021/12/22 03:28:48;;;;;;;37.53;13.57;;;;;;;;;;5054539;28;20024;-70
2021/12/22 03:31:15;;;;;;;39.50;14.95;;;;;;;;;;5054211;28;20488;-70
2021/12/22 03:33:41;;;;;;;60.78;30.35;;;;;;;;;;5054544;28;20481;-71
2021/12/22 03:36:08;;;;;;;32.70;16.45;;;;;;;;;;5057087;28;20025;-71
2021/12/22 03:38:35;;;;;;;33.63;14.82;;;;;;;;;;5053604;28;20025;-70
2021/12/22 03:41:01;;;;;;;28.80;13.85;;;;;;;;;;5053156;28;20125;-69
2021/12/22 03:43:27;;;;;;;28.80;13.05;;;;;;;;;;5052411;28;20079;-70
2021/12/22 03:45:53;;;;;;;30.23;13.02;;;;;;;;;;5054120;28;20033;-69
2021/12/22 03:48:20;;;;;;;41.47;15.20;;;;;;;;;;5052783;28;20366;-69
2021/12/22 03:50:46;;;;;;;29.30;14.40;;;;;;;;;;5052744;28;20048;-70
2021/12/22 03:53:12;;;;;;;43.88;14.23;;;;;;;;;;5053238;28;20021;-69
2021/12/22 03:55:38;;;;;;;31.90;14.23;;;;;;;;;;5052801;28;20036;-69
2021/12/22 03:58:04;;;;;;;32.20;14.20;;;;;;;;;;5053941;28;20032;-69
2021/12/22 04:00:31;;;;;;;27.95;13.02;;;;;;;;;;5052625;28;20036;-70
2021/12/22 04:02:57;;;;;;;27.73;12.65;;;;;;;;;;5053295;28;20481;-69
2021/12/22 04:05:23;;;;;;;27.92;13.63;;;;;;;;;;5054089;28;20083;-70
2021/12/22 04:07:54;;;;;;;33.40;15.88;;;;;;;;;;5052436;28;20048;-69
2021/12/22 04:10:21;;;;;;;26.50;12.13;;;;;;;;;;5053333;28;20075;-70
2021/12/22 04:12:52;;;;;;;30.92;13.88;;;;;;;;;;5052923;28;20013;-72
2021/12/22 04:15:19;;;;;;;28.30;13.73;;;;;;;;;;5053696;28;20075;-70
2021/12/22 04:17:45;;;;;;;26.88;13.98;;;;;;;;;;5053717;28;20390;-69
2021/12/22 04:20:11;;;;;;;29.95;13.35;;;;;;;;;;5052193;28;20029;-69
2021/12/22 04:22:38;;;;;;;29.98;13.13;;;;;;;;;;5051085;28;20366;-69
2021/12/22 04:25:05;;;;;;;48.20;16.13;;;;;;;;;;5051980;28;20025;-69
2021/12/22 04:27:31;;;;;;;40.50;13.50;;;;;;;;;;5053043;28;20020;-69
2021/12/22 04:29:57;;;;;;;32.03;12.65;;;;;;;;;;5053203;28;20032;-70
2021/12/22 04:32:24;;;;;;;40.97;14.88;;;;;;;;;;5052730;28;20021;-69
2021/12/22 04:34:50;;;;;;;27.48;13.27;;;;;;;;;;5053173;28;20481;-71
2021/12/22 04:37:15;;;;;;;32.83;13.35;;;;;;;;;;5052038;28;20040;-70
2021/12/22 04:39:41;;;;;;;29.90;12.63;;;;;;;;;;5052921;28;20385;-70
2021/12/22 04:42:08;;;;;;;35.33;13.77;;;;;;;;;;5050884;28;20029;-69
2021/12/22 04:44:35;;;;;;;31.17;14.33;;;;;;;;;;5053153;28;20137;-68
2021/12/22 04:47:01;;;;;;;26.80;13.52;;;;;;;;;;5052864;28;20060;-70
2021/12/22 04:49:27;;;;;;;39.20;14.40;;;;;;;;;;5051610;28;20064;-69
2021/12/22 04:51:55;;;;;;;31.50;13.00;;;;;;;;;;5050842;28;20029;-69
2021/12/22 04:56:53;;;;;;;37.60;14.73;;;;;;;;;;5052891;28;20037;-69
2021/12/22 04:59:18;;;;;;;45.03;12.95;;;;;;;;;;5052758;28;20469;-71
2021/12/22 05:01:44;;;;;;;43.42;14.32;;;;;;;;;;5050924;28;20029;-70
2021/12/22 05:04:10;;;;;;;32.05;13.90;;;;;;;;;;5052714;28;20089;-69
2021/12/22 05:06:36;;;;;;;31.60;13.02;;;;;;;;;;5051574;28;20405;-70
2021/12/22 05:09:06;;;;;;;28.90;12.13;;;;;;;;;;5051426;28;20032;-70
2021/12/22 05:11:33;;;;;;;30.75;13.43;;;;;;;;;;5052544;28;20032;-69
2021/12/22 05:13:59;;;;;;;29.00;12.73;;;;;;;;;;5050959;28;20589;-69
2021/12/22 05:16:25;;;;;;;37.95;15.63;;;;;;;;;;5052594;28;20028;-70
2021/12/22 05:18:57;;;;;;;27.65;13.45;;;;;;;;;;5052539;28;20029;-69
2021/12/22 05:21:24;;;;;;;32.42;14.63;;;;;;;;;;5051550;28;20028;-69
2021/12/22 05:23:51;;;;;;;35.17;15.13;;;;;;;;;;5050759;28;20121;-70
2021/12/22 05:26:17;;;;;;;30.00;13.68;;;;;;;;;;5052768;28;20024;-69
2021/12/22 05:28:43;;;;;;;43.08;16.25;;;;;;;;;;5051114;28;20059;-70
2021/12/22 05:31:09;;;;;;;57.03;17.48;;;;;;;;;;5050850;28;20025;-69
2021/12/22 05:33:35;;;;;;;61.08;17.98;;;;;;;;;;5050348;28;20021;-69
2021/12/22 05:36:01;;;;;;;30.08;14.35;;;;;;;;;;5052132;28;20155;-68
2021/12/22 05:38:27;;;;;;;29.77;13.63;;;;;;;;;;5050863;28;20029;-69
2021/12/22 05:40:53;;;;;;;27.48;14.50;;;;;;;;;;5050980;28;20032;-69
2021/12/22 05:43:19;;;;;;;36.63;15.68;;;;;;;;;;5051598;28;20029;-69
2021/12/22 05:45:45;;;;;;;35.97;15.88;;;;;;;;;;5051347;28;20109;-70
2021/12/22 05:48:11;;;;;;;28.92;14.73;;;;;;;;;;5052260;28;20378;-68
2021/12/22 05:50:37;;;;;;;47.75;17.23;;;;;;;;;;5052001;28;20452;-68
2021/12/22 05:53:04;;;;;;;30.63;13.57;;;;;;;;;;5051485;28;20021;-69
2021/12/22 05:55:30;;;;;;;33.60;14.95;;;;;;;;;;5050693;28;20021;-69
2021/12/22 05:57:56;;;;;;;31.75;14.52;;;;;;;;;;5050864;28;20123;-66
2021/12/22 06:00:22;;;;;;;31.50;15.55;;;;;;;;;;5051504;28;20025;-66
2021/12/22 06:02:48;;;;;;;26.20;13.85;;;;;;;;;;5050837;28;20098;-65
2021/12/22 06:05:15;;;;;;;32.78;14.52;;;;;;;;;;5050487;28;20437;-65
2021/12/22 06:07:41;;;;;;;28.90;14.20;;;;;;;;;;5050136;28;20021;-65
2021/12/22 06:10:08;;;;;;;27.92;13.93;;;;;;;;;;5049762;28;20040;-66
2021/12/22 06:12:34;;;;;;;24.65;11.85;;;;;;;;;;5050707;28;20103;-66
2021/12/22 06:15:00;;;;;;;26.88;14.15;;;;;;;;;;5050190;28;20053;-66
2021/12/22 06:17:26;;;;;;;26.67;12.38;;;;;;;;;;5052286;28;20064;-67
2021/12/22 06:19:53;;;;;;;24.58;12.85;;;;;;;;;;5049870;28;20468;-66
2021/12/22 06:22:19;;;;;;;29.50;14.30;;;;;;;;;;5047961;28;20139;-66
2021/12/22 06:24:45;;;;;;;25.60;13.15;;;;;;;;;;5049449;28;20041;-67
2021/12/22 06:27:11;;;;;;;27.83;13.38;;;;;;;;;;5050031;28;20031;-66
2021/12/22 06:29:37;;;;;;;23.73;12.00;;;;;;;;;;5050416;28;20119;-66
2021/12/22 06:32:03;;;;;;;33.10;13.35;;;;;;;;;;5049911;28;20065;-67
2021/12/22 06:34:29;;;;;;;25.20;13.90;;;;;;;;;;5054997;28;20448;-67
2021/12/22 06:36:55;;;;;;;23.65;13.00;;;;;;;;;;5053417;28;20060;-67
2021/12/22 06:39:21;;;;;;;25.83;12.25;;;;;;;;;;5053959;28;20095;-67
2021/12/22 06:41:47;;;;;;;27.92;13.07;;;;;;;;;;5052797;28;20025;-66
2021/12/22 06:44:14;;;;;;;24.00;12.77;;;;;;;;;;5055114;28;20021;-68
2021/12/22 06:46:41;;;;;;;27.35;12.88;;;;;;;;;;5054856;28;20017;-67
2021/12/22 06:49:08;;;;;;;30.77;12.85;;;;;;;;;;5055074;28;20473;-67
2021/12/22 06:51:34;;;;;;;25.50;13.32;;;;;;;;;;5052676;28;20025;-62
2021/12/22 06:54:00;;;;;;;25.58;12.32;;;;;;;;;;5053319;28;20028;-67
2021/12/22 06:56:25;;;;;;;30.83;15.38;;;;;;;;;;5054691;28;20032;-67
2021/12/22 06:58:52;;;;;;;27.55;13.77;;;;;;;;;;5053429;28;20122;-67
2021/12/22 07:01:20;;;;;;;25.98;12.13;;;;;;;;;;5054572;28;20397;-67
2021/12/22 07:03:46;;;;;;;22.50;12.80;;;;;;;;;;5053914;28;20017;-66
2021/12/22 07:06:12;;;;;;;24.95;12.32;;;;;;;;;;5054709;28;20033;-66
2021/12/22 07:08:38;;;;;;;26.98;12.65;;;;;;;;;;5053137;28;20025;-65
2021/12/22 07:11:04;;;;;;;25.20;13.57;;;;;;;;;;5073018;23;20058;-64
2021/12/22 07:13:31;;;;;;;26.85;12.98;;;;;;;;;;5052653;28;20025;-63
2021/12/22 07:15:57;;;;;;;26.83;14.15;;;;;;;;;;5053843;28;20036;-66
2021/12/22 07:18:23;;;;;;;24.17;13.10;;;;;;;;;;5053645;28;20040;-66
2021/12/22 07:20:49;;;;;;;25.58;14.05;;;;;;;;;;5054641;28;20052;-65
2021/12/22 07:23:16;;;;;;;24.00;12.98;;;;;;;;;;5053835;28;20032;-66
2021/12/22 07:25:42;;;;;;;23.10;12.32;;;;;;;;;;5054697;28;20393;-66
2021/12/22 07:28:11;;;;;;;23.55;12.13;;;;;;;;;;5053307;28;20021;-66
2021/12/22 07:30:38;;;;;;;21.95;11.98;;;;;;;;;;5052872;28;20104;-66
2021/12/22 07:33:04;;;;;;;26.02;12.77;;;;;;;;;;5053953;28;20029;-65
2021/12/22 07:35:34;;;;;;;22.25;11.75;;;;;;;;;;5052407;28;20021;-66
2021/12/22 07:38:23;;;;;;;25.42;13.02;;;;;;;;;;5053195;28;20079;-66
2021/12/22 07:40:49;;;;;;;24.42;12.10;;;;;;;;;;5053053;28;20025;-65
2021/12/22 07:43:15;;;;;;;24.30;12.68;;;;;;;;;;5053362;28;20021;-66
2021/12/22 07:45:41;;;;;;;24.23;13.07;;;;;;;;;;5052473;28;20055;-66
2021/12/22 07:48:07;;;;;;;25.67;12.35;;;;;;;;;;5053042;28;20021;-66
2021/12/22 07:50:33;;;;;;;22.33;11.55;;;;;;;;;;5052909;28;20032;-68
2021/12/22 07:52:59;;;;;;;26.15;12.63;;;;;;;;;;5052248;28;20097;-69
2021/12/22 07:55:25;;;;;;;27.15;13.02;;;;;;;;;;5053821;28;20029;-66
2021/12/22 07:57:51;;;;;;;24.42;11.80;;;;;;;;;;5052735;28;20025;-66
2021/12/22 08:00:17;;;;;;;24.08;11.45;;;;;;;;;;5053984;28;20039;-66
2021/12/22 08:02:43;;;;;;;21.02;11.32;;;;;;;;;;5053256;28;20029;-66
2021/12/22 08:05:10;;;;;;;21.52;11.13;;;;;;;;;;5054071;28;20025;-65
2021/12/22 08:07:36;;;;;;;24.05;12.82;;;;;;;;;;5053641;28;20052;-65
2021/12/22 08:10:03;;;;;;;23.33;11.20;;;;;;;;;;5052472;28;20033;-66
2021/12/22 08:12:30;;;;;;;21.98;11.43;;;;;;;;;;5053039;28;20021;-66
2021/12/22 08:14:56;;;;;;;23.08;11.60;;;;;;;;;;5052431;28;20040;-66
2021/12/22 08:17:22;;;;;;;21.95;12.45;;;;;;;;;;5052664;28;20025;-66
2021/12/22 08:19:48;;;;;;;22.08;11.77;;;;;;;;;;5052756;28;20029;-66
2021/12/22 08:22:15;;;;;;;22.17;10.88;;;;;;;;;;5051768;28;20053;-66
2021/12/22 08:24:41;;;;;;;23.92;12.80;;;;;;;;;;5052365;28;20095;-67
2021/12/22 08:27:07;;;;;;;20.80;10.63;;;;;;;;;;5053627;28;20029;-67
2021/12/22 08:29:33;;;;;;;23.98;11.55;;;;;;;;;;5053606;28;20056;-65
2021/12/22 08:31:59;;;;;;;25.20;11.95;;;;;;;;;;5052624;28;20048;-66
2021/12/22 08:34:34;;;;;;;24.77;11.05;;;;;;;;;;5052208;28;20111;-66
2021/12/22 08:39:45;;;;;;;23.30;11.60;;;;;;;;;;5053880;28;20527;-66
2021/12/22 08:42:11;;;;;;;26.45;13.70;;;;;;;;;;5051027;28;20032;-66
2021/12/22 08:44:37;;;;;;;24.52;11.73;;;;;;;;;;5051553;28;20020;-66
2021/12/22 08:47:04;;;;;;;25.63;11.65;;;;;;;;;;5051737;28;20025;-66
2021/12/22 08:49:30;;;;;;;22.88;12.43;;;;;;;;;;5052815;28;20436;-65
2021/12/22 08:51:56;;;;;;;20.83;10.95;;;;;;;;;;5052229;28;20416;-66
2021/12/22 08:54:22;;;;;;;22.70;11.45;;;;;;;;;;5053135;28;20087;-65
2021/12/22 08:56:48;;;;;;;22.02;11.55;;;;;;;;;;5051860;28;20029;-67
2021/12/22 08:59:15;;;;;;;22.35;11.07;;;;;;;;;;5051677;28;20033;-67
2021/12/22 09:01:41;;;;;;;21.58;11.50;;;;;;;;;;5050664;28;20052;-66
2021/12/22 09:04:07;;;;;;;22.52;11.70;;;;;;;;;;5051397;28;20098;-67
2021/12/22 09:06:33;;;;;;;21.08;10.63;;;;;;;;;;5052561;28;20029;-67
2021/12/22 09:08:59;;;;;;;20.25;9.93;;;;;;;;;;5052541;28;20025;-66
2021/12/22 09:11:26;;;;;;;20.58;10.70;;;;;;;;;;5050976;28;20071;-67
2021/12/22 09:13:52;;;;;;;20.90;11.60;;;;;;;;;;5050669;28;20036;-66
2021/12/22 09:16:19;;;;;;;23.05;10.25;;;;;;;;;;5051722;28;20028;-67
2021/12/22 09:18:45;;;;;;;22.30;10.75;;;;;;;;;;5053854;28;20051;-68
2021/12/22 09:21:12;;;;;;;23.30;11.32;;;;;;;;;;5052558;28;20511;-66
2021/12/22 09:23:39;;;;;;;19.80;10.27;;;;;;;;;;5043419;28;20028;-64
2021/12/22 09:26:07;;;;;;;22.58;10.73;;;;;;;;;;5051507;28;20029;-66
2021/12/22 09:28:33;;;;;;;21.42;10.63;;;;;;;;;;5052836;28;20103;-67
2021/12/22 09:30:59;;;;;;;21.00;11.07;;;;;;;;;;5043607;28;20049;-67
2021/12/22 09:33:26;;;;;;;22.17;10.75;;;;;;;;;;5032354;28;20100;-67
2021/12/22 09:35:52;;;;;;;22.90;11.45;;;;;;;;;;5033769;28;20029;-67
2021/12/22 09:38:18;;;;;;;20.08;10.50;;;;;;;;;;5031231;28;20167;-67
2021/12/22 09:40:45;;;;;;;19.65;11.05;;;;;;;;;;5050296;28;20057;-67
2021/12/22 09:43:11;;;;;;;20.00;11.35;;;;;;;;;;5051115;28;20033;-65
2021/12/22 09:45:43;;;;;;;21.65;11.98;;;;;;;;;;5051050;28;20032;-67
2021/12/22 09:53:15;;;;;;;23.35;12.07;;;;;;;;;;5051892;28;20013;-66
2021/12/22 09:55:42;;;;;;;22.58;11.85;;;;;;;;;;5048300;28;20025;-67
2021/12/22 09:58:09;;;;;;;21.55;10.93;;;;;;;;;;5031883;28;20025;-67
2021/12/22 10:00:36;;;;;;;20.70;11.63;;;;;;;;;;5032031;28;20022;-77
2021/12/22 10:03:06;;;;;;;20.77;10.73;;;;;;;;;;5031572;28;20036;-76
2021/12/22 10:05:33;;;;;;;23.15;11.95;;;;;;;;;;5032818;28;20025;-76
2021/12/22 10:08:06;;;;;;;22.85;11.88;;;;;;;;;;5034497;28;20026;-76
2021/12/22 10:10:32;;;;;;;23.20;12.18;;;;;;;;;;5036233;28;20029;-77
2021/12/22 10:13:11;;;;;;;20.58;10.88;;;;;;;;;;5035701;28;20064;-77
2021/12/22 10:15:37;;;;;;;21.25;11.25;;;;;;;;;;5035677;28;20028;-74
2021/12/22 10:18:07;;;;;;;22.30;12.77;;;;;;;;;;5036288;28;20041;-77
2021/12/22 10:20:33;;;;;;;21.15;11.27;;;;;;;;;;5037347;28;20096;-77
2021/12/22 10:23:00;;;;;;;19.27;10.65;;;;;;;;;;5035245;28;20040;-78
2021/12/22 10:25:29;;;;;;;21.70;11.50;;;;;;;;;;5036125;28;20033;-77
2021/12/22 10:28:16;;;;;;;24.63;11.30;;;;;;;;;;5035630;28;20064;-77
2021/12/22 10:30:43;;;;;;;18.85;10.90;;;;;;;;;;5035766;28;20446;-78
2021/12/22 10:33:11;;;;;;;20.58;10.90;;;;;;;;;;5037304;28;20502;-77
2021/12/22 10:35:39;;;;;;;26.13;12.57;;;;;;;;;;5036235;28;20029;-69
2021/12/22 10:38:08;;;;;;;38.13;19.45;;;;;;;;;;5035973;28;20100;-68
2021/12/22 10:40:36;;;;;;;23.23;13.20;;;;;;;;;;5037063;28;20021;-67
2021/12/22 10:43:03;;;;;;;20.80;11.43;;;;;;;;;;5034062;28;20025;-69
2021/12/22 10:45:30;;;;;;;21.33;11.57;;;;;;;;;;5034476;28;20037;-68
2021/12/22 10:50:43;;;;;;;21.50;11.75;;;;;;;;;;5035788;28;20041;-68
2021/12/22 10:53:10;;;;;;;21.42;11.93;;;;;;;;;;5033986;28;20026;-68
2021/12/22 10:55:37;;;;;;;22.65;12.10;;;;;;;;;;5034082;28;20049;-70
2021/12/22 10:58:34;;;;;;;20.13;12.05;;;-1.50;99.90;;;;;;5044570;28;20021;-69
2021/12/22 11:01:07;;;;;;;20.80;13.05;;;4.60;99.90;;;;;;5054729;28;20044;-69
2021/12/22 11:03:36;;;;;;;20.95;12.93;;;5.80;99.90;;;;;;5054952;28;20016;-69
2021/12/22 11:06:10;;;;;;;22.90;15.15;;;6.10;99.90;;;;;;5054017;28;20029;-70
2021/12/22 11:08:36;;;;;;;22.42;14.50;;;6.20;99.90;;;;;;5054077;28;20025;-73
2021/12/22 11:11:13;;;;;;;20.10;13.57;;;6.40;99.90;;;;;;5054758;28;20468;-69
2021/12/22 11:13:39;;;;;;;22.67;15.63;;;6.90;99.90;;;;;;5053607;28;20029;-70
2021/12/22 11:16:13;;;;;;;20.08;14.38;;;7.20;99.00;;;;;;5054988;28;20112;-70
2021/12/22 11:18:43;;;;;;;19.92;14.50;;;7.70;98.00;;;;;;5054231;28;20036;-71
2021/12/22 11:21:27;;;;;;;19.88;14.80;;;7.90;97.50;;;;;;5055233;28;20070;-70
2021/12/22 11:23:53;;;;;;;21.83;14.48;;;8.60;96.10;;;;;;5052651;28;20048;-71
2021/12/22 11:26:19;;;;;;;20.02;14.55;;;9.10;94.40;;;;;;5054910;28;20110;-68
2021/12/22 11:28:45;;;;;;;23.35;15.65;;;8.50;93.70;;;;;;5053683;28;20040;-69
2021/12/22 11:31:12;;;;;;;19.50;14.07;;;8.50;93.90;;;;;;5054621;28;20025;-69
2021/12/22 11:33:40;;;;;;;21.90;15.23;;;8.50;93.50;;;;;;5054596;28;20051;-69
2021/12/22 11:36:08;;;;;;;19.75;13.93;;;8.20;93.60;;;;;;5054364;28;20416;-70
2021/12/22 11:38:33;;;;;;;23.02;15.57;;;7.90;94.20;;;;;;5053992;28;20407;-70
2021/12/22 11:41:16;;;;;;;19.48;14.15;;;7.70;94.30;;;;;;5053609;28;20025;-69
2021/12/22 11:43:44;;;;;;;19.50;13.73;;;7.20;95.50;;;;;;5053399;28;20116;-70
2021/12/22 11:46:11;;;;;;;18.52;13.23;;;7.40;95.30;;;;;;5054820;28;20021;-70
2021/12/22 11:48:37;;;;;;;19.33;13.70;;;7.80;94.40;;;;;;5054957;28;20540;-70
2021/12/22 11:51:27;;;;;;;23.15;14.27;;;7.10;93.90;;;;;;5053520;28;20097;-71
2021/12/22 11:53:58;;;;;;;18.85;13.45;;;6.40;95.70;;;;;;5052759;28;20029;-69
2021/12/22 11:56:44;;;;;;;19.23;13.55;;;6.90;96.10;;;;;;5054107;28;20461;-68
2021/12/22 11:59:29;;;;;;;21.15;14.05;;;7.40;95.90;;;;;;5054182;28;20508;-70
2021/12/22 12:02:23;;;;;;;20.80;13.98;;;8.10;94.90;;;;;;5053980;28;20017;-70
2021/12/22 12:05:11;;;;;;;19.98;13.45;;;6.50;95.10;;;;;;5054177;28;20025;-69
2021/12/22 12:07:41;;;;;;;19.48;13.30;;;7.20;96.20;;;;;;5053596;28;20123;-70
2021/12/22 12:10:32;;;;;;;20.38;13.85;;;7.40;95.60;;;;;;5054708;28;20090;-71
2021/12/22 12:13:04;;;;;;;21.17;13.93;;;7.20;95.70;;;;;;5052521;28;20032;-70
2021/12/22 12:16:00;;;;;;;21.23;13.57;;;;;;;;;;5052830;28;20028;-69
2021/12/22 12:21:49;;;;;;;21.67;14.40;;;;;;;;;;5053898;28;20452;-69
2021/12/22 12:24:30;;;;;;;21.17;13.68;;;;;;;;;;5052881;28;20059;-70
2021/12/22 12:26:57;;;;;;;20.85;12.90;;;;;;;;;;5052542;28;20021;-71
2021/12/22 12:29:42;;;;;;;22.67;14.73;;;;;;;;;;5054717;28;20035;-70
2021/12/22 12:32:08;;;;;;;21.42;13.45;;;;;;;;;;5052203;28;20025;-71
2021/12/22 12:34:38;;;;;;;23.92;14.30;;;6.30;96.60;;;;;;5052471;28;20021;-71
2021/12/22 12:37:06;;;;;;;20.50;12.35;;;4.00;99.90;;;;;;5053903;28;20043;-71
2021/12/22 12:39:56;;;;;;;21.02;13.60;;;3.80;99.90;;;;;;5052690;28;20328;-70
2021/12/22 12:42:22;;;;;;;19.92;12.75;;;3.90;99.90;;;;;;5053188;28;20025;-71
2021/12/22 12:44:48;;;;;;;21.65;13.38;;;3.50;99.90;;;;;;5053603;28;20078;-70
2021/12/22 12:47:19;;;;;;;19.73;11.95;;;3.70;99.90;;;;;;5052092;28;20021;-70
2021/12/22 12:49:45;;;;;;;20.23;12.80;;;3.60;99.90;;;;;;5052577;28;20025;-70
2021/12/22 12:52:21;;;;;;;21.05;12.27;;;3.70;99.90;;;;;;5051475;28;20024;-68
2021/12/22 12:54:49;;;;;;;20.60;12.65;;;3.60;99.90;;;;;;5052472;28;20090;-69
2021/12/22 12:57:14;;;;;;;20.67;12.33;;;3.40;99.90;;;;;;5053660;28;20025;-71
2021/12/22 12:59:40;;;;;;;19.63;12.32;;;3.30;99.90;;;;;;5052647;28;20025;-70
2021/12/22 13:02:27;;;;;;;19.75;11.82;;;3.40;99.90;;;;;;5052077;28;20039;-70
2021/12/22 13:05:02;;;;;;;21.85;12.95;;;3.30;99.90;;;;;;5053863;28;20021;-68
2021/12/22 13:07:28;;;;;;;21.13;12.05;;;3.30;99.90;;;;;;5052682;28;20112;-70
2021/12/22 13:17:43;;;;;;;19.23;11.77;;;;;;;;;;5072216;28;20054;-73
2021/12/22 13:20:11;;;;;;;19.13;11.77;;;3.20;99.90;;;;;;5054568;28;20032;-71
2021/12/22 13:22:39;;;;;;;21.70;12.03;;;3.10;99.90;;;;;;5053771;28;20136;-70
2021/12/22 13:25:04;;;;;;;20.45;11.82;;;;;;;;;;5053972;28;20033;-71
2021/12/22 13:27:31;;;;;;;21.17;12.90;;;;;;;;;;5071735;28;20484;-71
2021/12/22 13:30:04;;;;;;;21.45;11.90;;;;;;;;;;5053474;28;20105;-68
2021/12/22 13:32:30;;;;;;;21.55;11.85;;;;;;;;;;5052912;28;20131;-70
2021/12/22 13:34:59;;;;;;;18.42;11.38;;;;;;;;;;5071657;28;20084;-70
2021/12/22 13:37:25;;;;;;;20.95;12.05;;;;;;;;;;5072280;28;20040;-71
2021/12/22 13:39:51;;;;;;;20.17;11.98;;;;;;;;;;5053356;28;20078;-70
2021/12/22 13:42:17;;;;;;;21.20;12.57;;;;;;;;;;5070245;28;20028;-70
2021/12/22 13:44:43;;;;;;;21.48;12.48;;;;;;;;;;5071162;28;20514;-70
2021/12/22 13:47:09;;;;;;;19.55;11.90;;;;;;;;;;5053163;28;20063;-68
2021/12/22 13:49:38;;;;;;;18.85;10.73;;;;;;;;;;5071383;28;20025;-73
2021/12/22 13:52:04;;;;;;;48.38;32.60;;;;;;;;;;5070469;28;20017;-72
2021/12/22 13:54:32;;;;;;;27.00;16.35;;;;;;;;;;5053396;28;20480;-73
2021/12/22 13:57:09;;;;;;;19.50;12.15;;;;;;;;;;5053147;28;20060;-73
2021/12/22 13:59:36;;;;;;;21.38;12.27;;;;;;;;;;5071033;28;20021;-69
2021/12/22 14:02:03;;;;;;;22.13;12.95;;;;;;;;;;5069939;28;20082;-70
2021/12/22 14:04:36;;;;;;;19.30;11.30;;;;;;;;;;5070585;28;20028;-71
2021/12/22 14:07:08;;;;;;;21.27;12.23;;;;;;;;;;5070910;28;20500;-71
2021/12/22 14:09:40;;;;;;;19.98;12.10;;;;;;;;;;5071044;28;20067;-72
2021/12/22 14:12:11;;;;;;;21.50;12.23;;;;;;;;;;5051796;28;20185;-71
2021/12/22 14:14:40;;;;;;;20.25;12.25;;;;;;;;;;5052733;28;20024;-72
2021/12/22 14:17:09;;;;;;;21.65;12.60;;;;;;;;;;5070895;28;20060;-71
2021/12/22 14:19:36;;;;;;;20.40;12.90;;;;;;;;;;5053360;28;20063;-72
2021/12/22 14:22:02;;;;;;;21.30;11.85;;;;;;;;;;5069949;28;20480;-71
2021/12/22 14:24:38;;;;;;;22.95;12.65;;;;;;;;;;5052524;28;20033;-73
2021/12/22 14:27:06;;;;;;;20.10;11.68;;;;;;;;;;5070803;28;20025;-72
2021/12/22 14:29:32;;;;;;;21.17;12.43;;;;;;;;;;5070559;28;20097;-72
2021/12/22 14:32:03;;;;;;;21.30;11.98;;;;;;;;;;5051418;28;20101;-72
2021/12/22 14:34:29;;;;;;;21.00;12.93;;;;;;;;;;5070672;28;20027;-69
2021/12/22 14:36:56;;;;;;;21.83;12.68;;;;;;;;;;5047811;28;20047;-72
2021/12/22 14:39:39;;;;;;;24.90;13.20;;;;;;;;;;5050803;28;20032;-67
2021/12/22 14:42:24;;;;;;;21.70;12.50;;;;;;;;;;5049635;28;20254;-70
2021/12/22 14:44:50;;;;;;;21.55;12.77;;;;;;;;;;5051802;28;20119;-73